Etusivu
METAR-TAF:

METAR-TAF

Lentoasemat :

Blytheville, Arkansas, Yhdysvallat

Leveyspiiri: 35-58N, Pituuspiiri: 089-57W, korkeus merenpinnasta: 78 m

Tämänhetkinen sää

Tämä raportti tehtiin 1 tunti ja 37 minuuttia sitten, kello 21.55 UTC
tyyntä
Lämpötila 11°C
Kosteus 62%
Ilmanpaine 1015 hPa
Näkyvyys: 16.1 km
Pilvistä 25000 ft:n korkeudessa

METAR: KBYH 212155Z 00000KT 10SM OVC250 11/04 A2996 RMK LAST

Aika: 17:32 (23:32 UTC)


TAF: puuttuu

Säähavainnot ja -ennusteet yli 4000 lentoasemalta (METAR- ja TAF-raportit).

Käytössä olevat sääasemat on merkitty karttaan keltaisilla ja punaisilla pisteillä.

Aseta hiiri pisteen päälle nähdäksesi sääaseman nimen.

Klikkaa sitten nähdäksesi säähavainnot ja -ennusteet.

Kartan vaihtaminen: klikkaa mustalla rastilla varustettuja vihreitä pisteitä, niin voit zoomata sisään; viivalla varustettua vihreää pistettä, niin voit zoomata ulos tai vihreitä nuolia, niin pääset viereisille kartoille.


METAR-TAF: